AirNav   Phillips 66 Aviation Fuel
 
 1037 users online  

I43 James A Rhodes Airport
Jackson, Ohio, USA

GOING TO JACKSON?


FAA INFORMATION EFFECTIVE 26 APRIL 2018

Location

FAA Identifier: I43
Lat/Long: 38-58-52.8966N / 082-34-40.2610W
38-58.881610N / 082-34.671017W
38.9813602 / -82.5778503
(estimated)
Elevation: 725.8 ft. / 221.2 m (surveyed)
Variation: 05W (1985)
From city: 5 miles SE of JACKSON, OH
Time zone: UTC -4 (UTC -5 during Standard Time)
Zip code: 45640

Airport Operations

Airport use: Open to the public
Activation date: 11/1961
Control tower: no
ARTCC: INDIANAPOLIS CENTER
FSS: DAYTON FLIGHT SERVICE STATION
NOTAMs facility: DAY (NOTAM-D service available)
Attendance: MON-FRI 0800-1300
Wind indicator: lighted
Segmented circle: no
Lights: MIRL RY 01/19 PRESET LOW INTST DUSK-DAWN, TO INCR INTST & ACTVT - CTAF.
Beacon: white-green (lighted land airport)
Operates sunset to sunrise.

Airport Communications

CTAF/UNICOM: 122.7
WX AWOS-3: 118.825 (740-286-1760)
HUNTINGTON APPROACH: 128.4
HUNTINGTON DEPARTURE: 128.4
WX AWOS-3 at PMH (15 nm SW): 125.175 (740-820-2500)
WX AWOS-A at EOP (20 nm NW): 118.4

Nearby radio navigation aids

VOR radial/distance  VOR name  Freq  Var
YRKr048/27.6YORK VORTAC112.8005W
HNNr301/29.2HENDERSON VORTAC115.9003W
XUBr155/(37.6)YELLOW BUD VOR112.5005W

 
NDB name  Hdg/Dist  Freq  Var  ID
WAVERLY130/19.938506WEOP . --- .--.
UNIVERSITY238/26.825006WUGS ..- --. ...

Airport Services

Fuel available: 100LL JET-A1+
Parking: tiedowns
Airframe service: NONE
Powerplant service: NONE
Bottled oxygen: NONE
Bulk oxygen: NONE

Runway Information

Runway 1/19

Dimensions: 5201 x 75 ft. / 1585 x 23 m
Surface: asphalt, in fair condition
Runway edge lights: medium intensity
RUNWAY 1  RUNWAY 19
Latitude: 38-58.454877N38-59.308343N
Longitude: 082-34.719482W082-34.622542W
Elevation: 722.4 ft.725.8 ft.
Gradient: 0.2%0.2%
Traffic pattern: leftleft
Runway heading: 010 magnetic, 005 true190 magnetic, 185 true
Displaced threshold: 331 ft.no
Markings: nonprecision, in good conditionnonprecision, in good condition
Visual slope indicator: 2-box SAVASI on left
Runway end identifier lights: nono
Touchdown point: yes, no lightsyes, no lights
Obstructions: 84 ft. tree, 1056 ft. from runway, 158 ft. right of centerline, 10:1 slope to clear
RY 01 APCH RATIO 0:1 TO DSPLCD THLD DUE TO OBST +64' TREES 0 FT FM DSPLCD THLD THLD 193 FT L.
10 ft. road, 201 ft. from runway, 230 ft. right of centerline
RY 19 + 10 FT ROAD 0'-200' FM RY END 230 FT R.

Airport Ownership and Management from official FAA records

Ownership: Publicly-owned
Owner: JACKSON CO COMM
215 BROAD STREET
JACKSON, OH 45640
Phone 740-286-3522
Manager: JOHN FRISBY
1800 KEYSTONE STATION ROAD
JACKSON, OH 45640
Phone 740-286-0137

Airport Operational Statistics

Aircraft based on the field: 26
Single engine airplanes: 24
Multi engine airplanes: 1
Helicopters: 1
    
Aircraft operations: avg 116/week *
74% local general aviation
12% air taxi
9% transient general aviation
5% military
* for 12-month period ending 03 September 2015

Instrument Procedures

NOTE: All procedures below are presented as PDF files. If you need a reader for these files, you should download the free Adobe Reader.

NOT FOR NAVIGATION. Please procure official charts for flight.
FAA instrument procedures published for use from 26 April 2018 at 901Z to 24 May 2018 at 0900Z.

 
IAPs - Instrument Approach Procedures
RNAV (GPS) RWY 01   download (209KB)
RNAV (GPS) RWY 19   download (205KB)
VOR/DME-A   download (171KB)
NOTE: Special Take-Off Minimums/Departure Procedures apply   download (164KB)

Other nearby airports with instrument procedures:

KPMH - Greater Portsmouth Regional Airport (15 nm SW)
KEOP - Pike County Airport (20 nm NW)
KGAS - Gallia-Meigs Regional Airport (21 nm SE)
KUNI - Ohio University Airport (21 nm NE)
3I2 - Mason County Airport (23 nm E)
 
Loc | Ops | Rwys | IFR | FBO | Links
Com | Nav | Svcs | Stats | Notes

AirNav Hotels Sweepstakes
 
Area around I43 (James A Rhodes Airport)
 
Road maps at: MapQuest Bing Google
 
Aerial photo
WARNING: Photo may not be current or correct
Aerial photo of I43 (James A Rhodes Airport)
Taken in October 2006

Do you have a better or more recent aerial photo of James A Rhodes Airport that you would like to share? If so, please send us your photo.

 
Sectional chart

 
Airport distance calculator
Flying to James A Rhodes Airport? Find the distance to fly.

From to I43

Sunrise and sunset
Times for 21-May-2018
 Local
(UTC-4)
 Zulu
(UTC)
Morning civil twilight05:4309:43
Sunrise06:1410:14
Sunset20:4000:40
Evening civil twilight21:1101:11

Current date and time
Zulu (UTC)  21-May-2018 12:57:24
Local (UTC-4)  21-May-2018 08:57:24
 
METAR
KUNI 
21nm NE 
211235Z AUTO 07006KT 10SM CLR 19/17 A3016 RMK AO2 T01930173
K3I2 
23nm E 
211235Z AUTO 00000KT 10SM SCT050 21/18 A3018 RMK AO2 T02060183
KDWU 
27nm S 
211056Z AUTO 04008G16KT 330V090 6SM BR CLR 18/18 A3013 RMK AO2 SLP201 T01830178
KRZT 
34nm NW 
211237Z AUTO 06004KT 10SM CLR 18/16 A3017 RMK AO2
KHTS 
37nm S 
211251Z 11003KT 6SM HZ CLR 21/19 A3014 RMK AO2 SLP199 T02060189
TAF
KHTS 
37nm S 
211138Z 2112/2212 00000KT 1/4SM FG VV001 FM211230 00000KT 2SM BR SCT001 FM211300 00000KT 5SM BR SCT003 FM211400 10004KT P6SM SCT040 FM212000 13005KT P6SM VCTS SCT050CB FM220100 00000KT P6SM BKN100
NOTAMs
Click for the latest NOTAMs
NOTAMs are issued by the DoD/FAA and will open in a separate window not controlled by AirNav.

 

 
 

FBO, Fuel Providers, and Aircraft Ground Support

  
 Business Name 
 
 Contact 
 
 Services / Description 
 
Fuel Prices
 
Comments
  
James A. Rhodes Airport 740-286-0137
no information available

If you are affiliated with James A. Rhodes Airport and would like to show here your services, contact info, web link, logo, and more, click here
100LL Jet A
AS $4.55 --- 
FS --- $3.89 
 Updated 04-May-2018
 
   1 read write
AS=Assisted/Self Service
FS=Full service
Update Fuel Prices
 

Would you like to see your business listed on this page?

 If your business provides an interesting product or service to pilots, flight crews, aircraft, or users of the James A Rhodes Airport, you should consider listing it here.  To start the listing process, click on the button below
 
Add a business
 

Other Pages about James A Rhodes Airport

Update a link
 
Copyright © AirNav, LLC. All rights reserved. Privacy Policy  Contact